Time;durP1;ratioP1;P1;durP2;ratioP2;P2;SDS_P1;SDS_P2;PMS_P1;PMS_P2;Temp;Humidity;BMP_temperature;BMP_pressure;BME280_temperature;BME280_humidity;BME280_pressure;Samples;Min_cycle;Max_cycle;Signal;HPM_P1;HPM_P2
2021/06/16 00:01:01;;;;;;;;;19.50;17.25;;;;;26.86;45.80;101111.13;4829957;29;45348;-73
2021/06/16 00:03:27;;;;;;;;;17.75;16.25;;;;;26.74;46.29;101096.75;4829875;29;47493;-73
2021/06/16 00:05:52;;;;;;;;;19.75;18.50;;;;;26.82;46.34;101109.72;4829588;29;54962;-74
2021/06/16 00:08:17;;;;;;;;;16.25;15.75;;;;;26.82;46.42;101109.72;4829563;29;56247;-74
2021/06/16 00:10:43;;;;;;;;;16.75;15.75;;;;;26.79;46.29;101111.72;4829442;29;50204;-73
2021/06/16 00:13:08;;;;;;;;;16.00;16.00;;;;;26.78;46.63;101101.78;4828809;29;45582;-73
2021/06/16 00:15:35;;;;;;;;;16.25;15.25;;;;;26.76;46.34;101094.72;4829368;29;45985;-73
2021/06/16 00:18:01;;;;;;;;;16.75;16.75;;;;;26.76;46.31;101097.44;4797926;29;45539;-73
2021/06/16 00:20:27;;;;;;;;;16.50;16.50;;;;;26.73;46.40;101086.78;4829546;29;45325;-73
2021/06/16 00:22:53;;;;;;;;;18.25;17.50;;;;;26.76;46.46;101090.13;4813426;29;45166;-73
2021/06/16 00:25:18;;;;;;;;;20.25;20.25;;;;;26.72;46.73;101079.59;4813203;29;46127;-74
2021/06/16 00:27:44;;;;;;;;;16.25;14.75;;;;;26.69;46.60;101093.59;4829356;29;54107;-73
2021/06/16 00:30:10;;;;;;;;;18.25;16.25;;;;;26.67;46.53;101082.78;4829314;29;45299;-73
2021/06/16 00:32:35;;;;;;;;;19.25;16.50;;;;;26.69;46.80;101088.97;4813201;29;45258;-73
2021/06/16 00:35:01;;;;;;;;;16.75;16.00;;;;;26.68;47.03;101083.63;4829374;29;45404;-74
2021/06/16 00:37:26;;;;;;;;;15.25;14.25;;;;;26.62;46.83;101072.22;4829340;29;50040;-73
2021/06/16 00:39:51;;;;;;;;;19.25;19.25;;;;;26.62;47.00;101074.97;4813101;29;45993;-73
2021/06/16 00:42:17;;;;;;;;;19.25;18.25;;;;;26.61;46.71;101073.25;4812792;29;51749;-73
2021/06/16 00:44:42;;;;;;;;;20.00;20.00;;;;;26.64;47.22;101080.31;4812574;29;52777;-73
2021/06/16 00:47:08;;;;;;;;;21.50;20.50;;;;;26.65;46.60;101081.19;4829310;29;45300;-74
2021/06/16 00:49:33;;;;;;;;;16.25;15.75;;;;;26.63;46.99;101075.88;4829432;29;45300;-73
2021/06/16 00:51:59;;;;;;;;;20.50;18.50;;;;;26.58;46.56;101067.19;4829481;29;45310;-74
2021/06/16 00:54:24;;;;;;;;;18.25;18.25;;;;;26.62;47.14;101071.38;4828988;29;51466;-74
2021/06/16 00:56:49;;;;;;;;;17.25;17.25;;;;;26.55;47.46;101060.13;4829219;29;45348;-74
2021/06/16 00:59:15;;;;;;;;;18.00;17.50;;;;;26.57;47.28;101063.59;4812500;29;46751;-73
2021/06/16 01:01:42;;;;;;;;;16.75;16.00;;;;;26.55;46.92;101067.50;4797633;29;45402;-73
2021/06/16 01:04:16;;;;;;;;;18.50;17.50;;;;;26.51;46.96;101055.94;4812533;29;46385;-73
2021/06/16 01:06:49;;;;;;;;;16.25;15.75;;;;;26.45;47.48;101053.81;4812911;29;45472;-73
2021/06/16 01:09:16;;;;;;;;;18.75;17.25;;;;;26.38;47.19;101039.84;4829063;29;45313;-73
2021/06/16 01:12:03;;;;;;;;;18.00;18.00;;;;;26.47;47.21;101056.41;4828456;29;45458;-73
2021/06/16 01:14:33;;;;;;;;;16.00;16.00;;;;;26.44;47.61;101057.56;4828421;29;47130;-74
2021/06/16 01:16:58;;;;;;;;;20.00;18.25;;;;;26.43;47.30;101044.91;4797318;29;45793;-73
2021/06/16 01:19:42;;;;;;;;;19.25;18.25;;;;;26.39;47.79;101048.91;4812198;29;45366;-73
2021/06/16 01:22:39;;;;;;;;;18.00;18.00;;;;;26.36;47.40;101050.09;4828997;29;45309;-73
2021/06/16 01:25:11;;;;;;;;;16.75;16.50;;;;;26.35;47.31;101037.41;4805027;29;45648;-73
2021/06/16 01:27:36;;;;;;;;;17.75;17.25;;;;;26.35;47.60;101033.81;4828953;29;45338;-74
2021/06/16 01:30:02;;;;;;;;;17.00;15.00;;;;;26.27;47.75;101022.72;4812296;29;45375;-73
2021/06/16 01:32:27;;;;;;;;;15.75;15.25;;;;;26.28;48.13;101028.06;4797319;29;45400;-73
2021/06/16 01:34:53;;;;;;;;;19.75;18.50;;;;;26.29;47.55;101028.91;4828416;29;50384;-74
2021/06/16 01:37:18;;;;;;;;;21.00;19.00;;;;;26.30;48.04;101034.25;4828710;29;45373;-73
2021/06/16 01:39:44;;;;;;;;;18.25;17.50;;;;;26.28;48.29;101038.13;4828692;29;45311;-73
2021/06/16 01:42:11;;;;;;;;;18.75;18.25;;;;;26.25;47.89;101042.03;4797233;29;45352;-73
2021/06/16 01:44:36;;;;;;;;;30.00;29.00;;;;;26.22;48.31;101031.38;4811962;29;46304;-73
2021/06/16 01:47:02;;;;;;;;;27.00;26.00;;;;;26.20;47.94;101026.03;4812088;29;45239;-74
2021/06/16 01:49:27;;;;;;;;;25.75;22.75;;;;;26.20;48.11;101025.19;4827538;29;45362;-73
2021/06/16 01:51:53;;;;;;;;;19.75;19.00;;;;;26.18;47.87;101029.94;4812144;29;45290;-74
2021/06/16 01:54:18;;;;;;;;;20.00;20.00;;;;;26.14;48.58;101026.59;4812110;29;45364;-74
2021/06/16 01:56:45;;;;;;;;;19.00;19.00;;;;;26.12;48.41;101025.88;4828569;29;45302;-73
2021/06/16 01:59:10;;;;;;;;;19.50;17.75;;;;;26.08;47.84;101024.47;4796697;29;45460;-73
2021/06/16 02:01:36;;;;;;;;;16.75;16.75;;;;;26.04;48.09;101023.91;4796725;29;48531;-74
2021/06/16 02:04:02;;;;;;;;;14.75;14.75;;;;;26.01;48.76;101013.22;4796525;29;50640;-73
2021/06/16 02:06:28;;;;;;;;;18.75;18.75;;;;;26.03;48.00;101027.63;4812054;29;45339;-73
2021/06/16 02:08:54;;;;;;;;;16.25;16.25;;;;;26.01;48.36;101012.34;4812193;29;45282;-74
2021/06/16 02:11:20;;;;;;;;;19.75;18.00;;;;;25.96;48.60;101009.19;4811757;29;45352;-74
2021/06/16 02:14:00;;;;;;;;;17.75;15.75;;;;;25.97;48.40;101019.97;4809053;29;45426;-73
2021/06/16 02:16:34;;;;;;;;;21.25;20.25;;;;;25.94;48.11;101008.44;4811646;29;45297;-73
2021/06/16 02:19:03;;;;;;;;;18.25;16.75;;;;;25.93;48.49;101006.69;4811756;29;45368;-73
2021/06/16 02:21:28;;;;;;;;;19.50;17.25;;;;;25.90;48.72;101005.13;4813239;29;45501;-73
2021/06/16 02:23:53;;;;;;;;;19.25;19.25;;;;;25.83;48.32;101002.09;4814626;29;54463;-74
2021/06/16 02:26:19;;;;;;;;;16.25;16.25;;;;;25.85;48.71;101008.28;4831486;29;45351;-74
2021/06/16 02:28:44;;;;;;;;;18.25;17.50;;;;;25.82;48.11;100996.78;4830957;29;49539;-73
2021/06/16 02:31:10;;;;;;;;;18.75;18.00;;;;;25.81;49.05;101001.38;4814814;29;52255;-73
2021/06/16 02:33:36;;;;;;;;;19.25;18.00;;;;;25.79;48.29;100997.91;4810403;29;45365;-74
2021/06/16 02:36:02;;;;;;;;;18.75;18.75;;;;;25.77;48.79;100988.13;4823451;29;45250;-73
2021/06/16 02:38:29;;;;;;;;;16.00;15.50;;;;;25.73;48.49;100990.28;4831310;29;45277;-74
2021/06/16 02:40:54;;;;;;;;;17.00;17.00;;;;;25.72;48.45;100985.81;4814991;29;45497;-73
2021/06/16 02:43:21;;;;;;;;;21.00;19.75;;;;;25.70;48.80;100979.66;4814633;29;45819;-73
2021/06/16 02:45:46;;;;;;;;;22.50;20.75;;;;;25.64;48.73;100972.88;4830902;29;45486;-73
2021/06/16 02:48:12;;;;;;;;;21.50;19.50;;;;;25.61;49.05;100973.16;4814568;29;45314;-73
2021/06/16 02:50:37;;;;;;;;;19.25;19.00;;;;;25.61;49.26;100972.28;4814570;29;45494;-73
2021/06/16 02:53:09;;;;;;;;;20.50;19.00;;;;;25.60;49.19;100978.78;4814465;29;46060;-74
2021/06/16 02:55:36;;;;;;;;;21.00;16.75;;;;;25.55;49.27;100975.59;4830979;29;45247;-73
2021/06/16 02:58:01;;;;;;;;;19.50;19.50;;;;;25.55;49.47;100976.47;4799528;29;45648;-73
2021/06/16 03:00:27;;;;;;;;;21.00;18.75;;;;;25.56;48.93;100969.13;4799251;29;45332;-74
2021/06/16 03:02:52;;;;;;;;;16.25;16.25;;;;;25.56;49.61;100977.31;4814218;29;45461;-73
2021/06/16 03:05:22;;;;;;;;;19.00;17.50;;;;;25.46;49.54;100963.63;4814634;29;45320;-73
2021/06/16 03:07:53;;;;;;;;;19.00;19.00;;;;;25.54;48.94;100974.72;4815176;29;45278;-73
2021/06/16 03:10:19;;;;;;;;;21.25;19.25;;;;;25.51;49.40;100970.41;4799694;29;45480;-73
2021/06/16 03:12:48;;;;;;;;;18.75;17.75;;;;;25.51;49.81;100972.28;4814256;29;45360;-73
2021/06/16 03:15:14;;;;;;;;;17.50;17.25;;;;;25.48;50.28;100965.22;4799083;29;45513;-74
2021/06/16 03:17:40;;;;;;;;;20.75;19.75;;;;;25.47;50.17;100966.22;4830409;29;45409;-73
2021/06/16 03:20:06;;;;;;;;;21.75;20.25;;;;;25.50;49.67;100979.59;4798552;29;45592;-73
2021/06/16 03:22:32;;;;;;;;;16.75;16.00;;;;;25.37;50.04;100951.69;4830396;29;45986;-73
2021/06/16 03:24:57;;;;;;;;;18.00;17.50;;;;;25.47;49.62;100977.16;4813959;29;52566;-73
2021/06/16 03:27:22;;;;;;;;;21.25;18.50;;;;;25.48;50.08;100978.91;4813873;29;47783;-74
2021/06/16 03:29:52;;;;;;;;;19.75;19.00;;;;;25.44;50.05;100963.78;4798815;29;45402;-74
2021/06/16 03:32:17;;;;;;;;;21.25;21.25;;;;;25.50;50.50;100971.41;4814052;29;45208;-74
2021/06/16 03:34:43;;;;;;;;;21.25;20.25;;;;;25.49;49.89;100979.75;4798354;29;45262;-74
2021/06/16 03:37:08;;;;;;;;;20.00;19.50;;;;;25.47;49.91;100981.75;4830486;29;45211;-73
2021/06/16 03:39:34;;;;;;;;;21.75;20.75;;;;;25.45;49.68;100975.59;4798879;29;45208;-74
2021/06/16 03:42:00;;;;;;;;;22.50;22.00;;;;;25.46;50.02;100971.81;4798451;29;50644;-73
2021/06/16 03:44:26;;;;;;;;;23.00;21.75;;;;;25.40;49.99;100964.22;4798524;29;45514;-74
2021/06/16 03:46:51;;;;;;;;;20.50;18.00;;;;;25.45;49.72;100978.31;4802172;29;45328;-73
2021/06/16 03:49:16;;;;;;;;;18.50;18.00;;;;;25.41;50.02;100972.28;4829992;29;45467;-74
2021/06/16 03:51:42;;;;;;;;;20.50;19.50;;;;;25.42;50.09;100973.13;4798695;29;48027;-73
2021/06/16 03:54:11;;;;;;;;;20.00;18.50;;;;;25.29;50.65;100960.59;4813646;29;45360;-74
2021/06/16 03:56:41;;;;;;;;;22.00;22.00;;;;;25.39;50.09;100973.41;4814334;29;45302;-73
2021/06/16 03:59:07;;;;;;;;;16.50;16.50;;;;;25.35;49.79;100966.50;4829815;29;45331;-73
2021/06/16 04:01:32;;;;;;;;;20.00;20.00;;;;;25.36;50.43;100973.69;4813623;29;45443;-73
2021/06/16 04:03:58;;;;;;;;;19.50;19.50;;;;;25.29;49.93;100967.91;4798366;29;45325;-73
2021/06/16 04:06:24;;;;;;;;;23.00;22.25;;;;;25.28;49.90;100967.06;4798249;29;50351;-73
2021/06/16 04:08:49;;;;;;;;;20.25;19.25;;;;;25.26;49.98;100965.41;4829800;29;45325;-73
2021/06/16 04:11:15;;;;;;;;;21.75;20.50;;;;;25.24;50.39;100964.69;4813224;29;52909;-73
2021/06/16 04:13:41;;;;;;;;;23.00;21.00;;;;;25.22;50.62;100966.72;4829686;29;45525;-73
2021/06/16 04:16:06;;;;;;;;;22.25;21.00;;;;;25.11;50.39;100951.31;4813403;29;45333;-73
2021/06/16 04:18:32;;;;;;;;;21.75;20.50;;;;;25.20;50.33;100966.84;4828368;29;45291;-73
2021/06/16 04:20:58;;;;;;;;;21.50;20.25;;;;;25.19;50.93;100967.00;4829294;29;45348;-74
2021/06/16 04:23:24;;;;;;;;;21.00;20.75;;;;;25.19;50.57;100973.31;4829972;29;45594;-73
2021/06/16 04:25:49;;;;;;;;;20.75;20.75;;;;;25.19;50.93;100976.03;4829857;29;45309;-73
2021/06/16 04:28:15;;;;;;;;;19.00;18.50;;;;;25.20;51.17;100974.19;4829931;29;45532;-73
2021/06/16 04:30:40;;;;;;;;;24.50;23.50;;;;;25.18;50.45;100971.59;4829282;29;48000;-73
2021/06/16 04:33:07;;;;;;;;;23.25;23.00;;;;;25.06;51.24;100946.25;4829606;29;45305;-74
2021/06/16 04:35:32;;;;;;;;;21.25;19.50;;;;;25.14;50.63;100954.63;4829739;29;45271;-73
2021/06/16 04:37:58;;;;;;;;;20.50;18.50;;;;;25.08;50.60;100943.41;4829208;29;52158;-73
2021/06/16 04:40:23;;;;;;;;;23.75;22.25;;;;;25.04;51.43;100934.63;4829534;29;45330;-73
2021/06/16 04:42:48;;;;;;;;;21.50;19.00;;;;;25.13;50.59;100952.03;4829398;29;45885;-73
2021/06/16 04:45:14;;;;;;;;;20.00;20.00;;;;;25.12;51.51;100951.16;4828344;29;45407;-73
2021/06/16 04:47:39;;;;;;;;;18.50;18.50;;;;;25.08;51.04;100938.78;4812915;29;45336;-73
2021/06/16 04:50:07;;;;;;;;;21.00;21.00;;;;;25.09;50.66;100942.38;4812770;29;45912;-73
2021/06/16 04:52:32;;;;;;;;;21.75;20.50;;;;;25.05;50.82;100938.22;4829211;29;45242;-74
2021/06/16 04:54:58;;;;;;;;;20.00;18.50;;;;;25.05;50.93;100939.06;4829405;29;46101;-73
2021/06/16 04:57:23;;;;;;;;;21.75;19.25;;;;;25.01;51.81;100928.56;4829035;29;48203;-73
2021/06/16 04:59:49;;;;;;;;;23.25;21.75;;;;;25.03;51.04;100929.31;4828874;29;51259;-73
2021/06/16 05:02:14;;;;;;;;;18.25;17.50;;;;;25.09;50.91;100935.06;4828947;29;48030;-73
2021/06/16 05:04:40;;;;;;;;;24.75;21.25;;;;;25.07;51.06;100923.41;4829434;29;45451;-73
2021/06/16 05:07:05;;;;;;;;;26.75;24.50;;;;;25.07;51.51;100922.53;4812275;29;53286;-73
2021/06/16 05:09:30;;;;;;;;;19.75;19.75;;;;;25.12;50.79;100933.91;4812795;29;45725;-74
2021/06/16 05:11:56;;;;;;;;;23.75;22.75;;;;;25.09;51.48;100926.88;4828533;29;55841;-73
2021/06/16 05:14:21;;;;;;;;;19.50;19.00;;;;;25.11;51.31;100924.88;4828849;29;45400;-73
2021/06/16 05:16:47;;;;;;;;;26.00;23.50;;;;;25.13;50.83;100925.56;4828891;29;45446;-74
2021/06/16 05:19:16;;;;;;;;;21.25;19.50;;;;;25.14;51.50;100926.44;4828154;29;45481;-73
2021/06/16 05:21:43;;;;;;;;;23.00;20.50;;;;;25.10;50.93;100916.81;4829040;29;45327;-73
2021/06/16 05:24:08;;;;;;;;;20.50;20.50;;;;;25.15;51.36;100925.44;4828950;29;45766;-74
2021/06/16 05:26:38;;;;;;;;;19.50;18.75;;;;;25.15;50.93;100922.72;4828949;29;45527;-73
2021/06/16 05:29:05;;;;;;;;;22.25;20.75;;;;;25.16;51.22;100927.19;4812424;29;46338;-73
2021/06/16 05:31:30;;;;;;;;;23.25;23.00;;;;;25.11;51.62;100924.00;4828870;29;45223;-73
2021/06/16 05:33:56;;;;;;;;;21.25;21.00;;;;;25.15;51.22;100933.63;4828856;29;45950;-73
2021/06/16 05:36:21;;;;;;;;;20.75;20.75;;;;;25.05;50.78;100924.56;4828538;29;50457;-74
2021/06/16 05:38:47;;;;;;;;;21.75;21.25;;;;;25.09;51.17;100917.78;4812114;29;46208;-73
2021/06/16 05:41:12;;;;;;;;;27.00;25.50;;;;;25.12;51.19;100934.75;4828784;29;45365;-74
2021/06/16 05:43:37;;;;;;;;;20.50;20.00;;;;;25.10;51.27;100933.19;4828680;29;45572;-73
2021/06/16 05:46:03;;;;;;;;;21.75;19.25;;;;;25.10;51.03;100930.47;4828410;29;48255;-73
2021/06/16 05:48:28;;;;;;;;;21.00;20.50;;;;;25.13;51.58;100925.56;4828348;29;45271;-73
2021/06/16 05:50:54;;;;;;;;;23.50;21.25;;;;;25.13;51.10;100928.31;4828533;29;45272;-74
2021/06/16 05:53:19;;;;;;;;;21.75;21.25;;;;;25.13;51.80;100928.31;4828806;29;45299;-73
2021/06/16 05:55:45;;;;;;;;;22.50;22.25;;;;;25.14;51.95;100926.44;4828254;29;50991;-73
2021/06/16 05:58:10;;;;;;;;;25.00;23.00;;;;;25.10;51.27;100917.66;4831633;29;50200;-73
2021/06/16 06:00:36;;;;;;;;;21.50;20.25;;;;;25.12;51.54;100926.56;4814864;29;49095;-73
2021/06/16 06:03:02;;;;;;;;;21.50;20.25;;;;;25.18;51.67;100933.34;4831799;29;45363;-73
2021/06/16 06:05:27;;;;;;;;;24.75;23.75;;;;;25.15;52.02;100926.28;4831636;29;45498;-73
2021/06/16 06:07:53;;;;;;;;;22.75;21.25;;;;;25.19;51.33;100929.59;4831582;29;46289;-73
2021/06/16 06:10:18;;;;;;;;;27.50;26.00;;;;;25.18;51.82;100924.31;4831524;29;45332;-73
2021/06/16 06:12:44;;;;;;;;;22.00;20.50;;;;;25.12;51.52;100923.84;4831208;29;48789;-73
2021/06/16 06:15:10;;;;;;;;;25.25;21.25;;;;;25.18;52.15;100925.16;4831345;29;45406;-74
2021/06/16 06:17:36;;;;;;;;;25.25;22.50;;;;;25.12;52.01;100903.88;4814543;29;46498;-74
2021/06/16 06:20:03;;;;;;;;;24.00;24.00;;;;;25.19;51.72;100924.13;4829679;29;45293;-73
2021/06/16 06:22:28;;;;;;;;;24.25;22.00;;;;;25.20;51.81;100920.41;4815096;29;45536;-73
2021/06/16 06:24:54;;;;;;;;;23.75;23.25;;;;;25.22;51.52;100923.00;4831402;29;45278;-73
2021/06/16 06:27:19;;;;;;;;;24.25;23.50;;;;;25.18;52.12;100925.16;4830916;29;48811;-73
2021/06/16 06:29:45;;;;;;;;;18.00;18.00;;;;;25.20;51.35;100920.41;4831114;29;45230;-74
2021/06/16 06:32:10;;;;;;;;;25.50;22.75;;;;;25.27;51.65;100921.59;4831211;29;45489;-73
2021/06/16 06:34:35;;;;;;;;;21.00;19.00;;;;;25.28;51.13;100922.50;4831444;29;45430;-73
2021/06/16 06:37:01;;;;;;;;;25.25;23.00;;;;;25.20;51.60;100912.22;4814442;29;45350;-73
2021/06/16 06:39:28;;;;;;;;;19.50;19.25;;;;;25.29;51.29;100921.47;4831443;29;45478;-73
2021/06/16 06:41:54;;;;;;;;;27.50;25.25;;;;;25.25;51.41;100917.28;4829981;29;45343;-73
2021/06/16 06:44:19;;;;;;;;;22.75;21.50;;;;;25.28;51.56;100919.75;4830987;29;45282;-74
2021/06/16 06:46:44;;;;;;;;;22.00;21.00;;;;;25.31;51.29;100911.28;4830718;29;55444;-73
2021/06/16 06:49:11;;;;;;;;;23.75;22.25;;;;;25.32;51.69;100911.13;4830689;29;51592;-73
2021/06/16 06:51:37;;;;;;;;;23.50;21.50;;;;;25.31;51.54;100906.69;4831018;29;45331;-73
2021/06/16 06:54:02;;;;;;;;;19.75;19.75;;;;;25.35;51.87;100907.25;4814615;29;45202;-73
2021/06/16 06:56:28;;;;;;;;;20.75;20.75;;;;;25.32;51.52;100900.19;4830475;29;46114;-73
2021/06/16 06:58:53;;;;;;;;;22.25;21.25;;;;;25.35;51.22;100899.06;4830534;29;45395;-72
2021/06/16 07:01:19;;;;;;;;;17.50;17.50;;;;;25.31;51.88;100889.44;4830987;29;45628;-72
2021/06/16 07:03:44;;;;;;;;;21.00;19.25;;;;;25.36;51.55;100888.97;4830425;29;48849;-72
2021/06/16 07:06:09;;;;;;;;;19.50;19.50;;;;;25.45;51.40;100896.34;4830709;29;45315;-72
2021/06/16 07:08:35;;;;;;;;;21.25;18.75;;;;;25.48;52.03;100896.06;4829687;29;45454;-73
2021/06/16 07:11:00;;;;;;;;;19.75;19.75;;;;;25.51;51.59;100887.56;4830507;29;46223;-73
2021/06/16 07:13:26;;;;;;;;;22.50;22.00;;;;;25.54;51.20;100886.41;4830801;29;45395;-73
2021/06/16 07:15:51;;;;;;;;;22.00;21.00;;;;;25.45;51.32;100871.75;4830054;29;45675;-64
2021/06/16 07:18:17;;;;;;;;;18.00;18.00;;;;;25.58;51.83;100888.72;4813498;29;49401;-65
2021/06/16 07:20:42;;;;;;;;;19.50;16.75;;;;;25.63;51.83;100888.28;4813756;29;45435;-65
2021/06/16 07:23:07;;;;;;;;;19.25;19.25;;;;;25.62;51.26;100883.81;4830094;29;57023;-65
2021/06/16 07:25:33;;;;;;;;;19.00;19.00;;;;;25.70;51.14;100892.16;4830134;29;52181;-64
2021/06/16 07:27:58;;;;;;;;;18.50;18.00;;;;;25.70;51.33;100881.22;4813817;29;45378;-65
2021/06/16 07:30:24;;;;;;;;;18.75;17.25;;;;;25.82;51.69;100892.88;4830340;29;45258;-65
2021/06/16 07:32:49;;;;;;;;;18.75;18.75;;;;;25.87;51.36;100890.56;4830225;29;45507;-65
2021/06/16 07:35:14;;;;;;;;;16.50;16.50;;;;;25.94;51.67;100886.22;4830071;29;45635;-65
2021/06/16 07:37:40;;;;;;;;;21.25;18.75;;;;;26.01;51.16;100889.28;4830232;29;45311;-65
2021/06/16 07:40:08;;;;;;;;;15.25;15.25;;;;;26.08;51.08;100887.69;4830319;29;45379;-65
2021/06/16 07:42:34;;;;;;;;;13.50;13.50;;;;;26.15;50.81;100880.63;4830411;29;45451;-65
2021/06/16 07:44:59;;;;;;;;;16.00;14.50;;;;;26.22;50.78;100880.88;4829827;29;45326;-65
2021/06/16 07:47:24;;;;;;;;;18.25;17.50;;;;;26.30;50.29;100874.69;4829900;29;50619;-65
2021/06/16 07:49:51;;;;;;;;;15.50;15.00;;;;;26.37;49.95;100873.06;4830096;29;45174;-65
2021/06/16 07:52:16;;;;;;;;;18.00;17.00;;;;;26.46;50.13;100866.66;4830174;29;45480;-65
2021/06/16 07:54:42;;;;;;;;;15.50;13.00;;;;;26.53;49.67;100873.28;4830065;29;45438;-65
2021/06/16 07:57:07;;;;;;;;;13.50;13.00;;;;;26.60;49.28;100868.06;4829693;29;51800;-65
2021/06/16 07:59:33;;;;;;;;;14.00;13.25;;;;;26.65;49.31;100863.03;4829858;29;45257;-65
2021/06/16 08:01:58;;;;;;;;;14.50;14.50;;;;;26.76;49.22;100860.09;4830171;29;45323;-65
2021/06/16 08:04:24;;;;;;;;;13.75;13.75;;;;;26.78;48.93;100858.06;4829614;29;46986;-65
2021/06/16 08:06:50;;;;;;;;;14.50;14.50;;;;;26.92;48.79;100856.69;4829864;29;45359;-65
2021/06/16 08:09:16;;;;;;;;;15.00;15.00;;;;;26.99;48.65;100856.94;4828623;29;45421;-65
2021/06/16 08:11:41;;;;;;;;;15.00;13.75;;;;;27.08;48.45;100856.00;4813437;29;45603;-65
2021/06/16 08:14:06;;;;;;;;;13.75;13.75;;;;;27.08;48.43;100839.56;4829581;29;45331;-65
2021/06/16 08:16:32;;;;;;;;;14.50;14.50;;;;;27.10;48.23;100834.78;4829696;29;45224;-65
2021/06/16 08:18:57;;;;;;;;;15.75;14.75;;;;;27.28;48.06;100844.91;4829050;29;46445;-65
2021/06/16 08:21:23;;;;;;;;;13.25;13.25;;;;;27.38;47.62;100851.19;4829828;29;45304;-65
2021/06/16 08:23:48;;;;;;;;;12.25;12.25;;;;;27.45;47.73;100837.72;4829601;29;45258;-65
2021/06/16 08:26:15;;;;;;;;;14.00;13.50;;;;;27.44;47.08;100825.03;4829723;29;45326;-65
2021/06/16 08:28:40;;;;;;;;;13.00;12.75;;;;;27.44;47.35;100819.56;4829564;29;45397;-65
2021/06/16 08:31:06;;;;;;;;;14.00;14.00;;;;;27.63;46.98;100837.69;4813249;29;45358;-66
2021/06/16 08:33:31;;;;;;;;;12.75;11.75;;;;;27.67;46.44;100836.38;4829282;29;45442;-65
2021/06/16 08:35:56;;;;;;;;;10.25;10.25;;;;;27.71;46.44;100822.16;4829300;29;47746;-65
2021/06/16 08:38:22;;;;;;;;;12.25;12.25;;;;;27.80;46.91;100833.19;4812819;29;45609;-65
2021/06/16 08:40:48;;;;;;;;;13.25;13.00;;;;;27.75;46.28;100817.25;4813058;29;46175;-64
2021/06/16 08:43:13;;;;;;;;;13.00;13.00;;;;;27.90;46.08;100825.75;4829289;29;45959;-65
2021/06/16 08:45:39;;;;;;;;;13.25;12.75;;;;;27.98;46.42;100834.03;4829093;29;45386;-65
2021/06/16 08:48:05;;;;;;;;;11.00;10.75;;;;;28.08;45.82;100833.94;4829136;29;45330;-65
2021/06/16 08:50:31;;;;;;;;;12.50;12.50;;;;;28.08;45.89;100818.38;4828823;29;45239;-65
2021/06/16 08:52:56;;;;;;;;;13.75;12.25;;;;;28.19;45.83;100819.09;4828881;29;45707;-65
2021/06/16 08:55:21;;;;;;;;;14.25;12.50;;;;;28.27;45.93;100822.75;4829297;29;45163;-65
2021/06/16 08:57:48;;;;;;;;;13.50;12.00;;;;;28.32;45.58;100821.38;4829115;29;45378;-65
2021/06/16 09:00:14;;;;;;;;;10.50;10.50;;;;;28.37;45.66;100822.63;4812713;29;45462;-65
2021/06/16 09:02:39;;;;;;;;;11.25;11.00;;;;;28.45;45.22;100832.78;4812467;29;45975;-65
2021/06/16 09:05:05;;;;;;;;;11.75;10.75;;;;;28.47;45.18;100825.25;4829139;29;45392;-65
2021/06/16 09:07:32;;;;;;;;;10.50;10.50;;;;;28.53;44.56;100823.72;4829130;29;45349;-65
2021/06/16 09:10:11;;;;;;;;;11.75;11.00;;;;;28.52;45.00;100813.75;4829010;29;45353;-65
2021/06/16 09:12:44;;;;;;;;;13.25;10.50;;;;;28.24;45.12;100773.66;4828831;29;46159;-65
2021/06/16 09:15:17;;;;;;;;;11.50;10.00;;;;;28.58;45.16;100815.88;4828772;29;45245;-65
2021/06/16 09:18:01;;;;;;;;;11.75;11.75;;;;;28.66;44.75;100820.56;4828676;29;45273;-66
2021/06/16 09:20:27;;;;;;;;;12.25;11.25;;;;;28.70;44.93;100813.69;4828624;29;45455;-65
2021/06/16 09:23:07;;;;;;;;;10.50;10.50;;;;;28.73;45.04;100805.13;4828811;29;45322;-65
2021/06/16 09:25:32;;;;;;;;;10.00;10.00;;;;;28.76;44.31;100810.28;4828937;29;45452;-65
2021/06/16 09:27:58;;;;;;;;;12.00;12.00;;;;;28.72;44.45;100800.63;4828822;29;45348;-66
2021/06/16 09:30:26;;;;;;;;;12.50;12.50;;;;;28.80;43.99;100808.91;4796601;29;45424;-65
2021/06/16 09:32:58;;;;;;;;;11.50;11.00;;;;;28.82;44.47;100802.22;4828334;29;46316;-64
2021/06/16 09:35:30;;;;;;;;;10.50;9.25;;;;;28.83;43.81;100801.22;4828631;29;45552;-65
2021/06/16 09:37:56;;;;;;;;;13.25;13.25;;;;;28.89;43.84;100798.81;4813098;29;45356;-65
2021/06/16 09:40:32;;;;;;;;;10.50;10.50;;;;;28.93;43.83;100791.94;4812270;29;45609;-65
2021/06/16 09:43:08;;;;;;;;;12.50;12.50;;;;;28.98;44.51;100795.03;4797397;29;45498;-64
2021/06/16 09:45:34;;;;;;;;;13.25;12.25;;;;;28.97;43.08;100774.13;4812033;29;45567;-66
2021/06/16 09:48:18;;;;;;;;;12.75;11.50;;;;;28.99;43.79;100778.41;4812073;29;45389;-65
2021/06/16 09:50:43;;;;;;;;;9.50;9.50;;;;;29.01;43.38;100783.72;4819635;29;45554;-65
2021/06/16 09:53:08;;;;;;;;;13.50;11.25;;;;;28.95;43.16;100767.91;4796472;29;53715;-65
2021/06/16 09:55:35;;;;;;;;;12.25;11.00;;;;;29.07;42.90;100791.31;4828182;29;50455;-65
2021/06/16 09:58:04;;;;;;;;;11.50;10.50;;;;;29.05;42.95;100790.59;4828612;29;45318;-65
2021/06/16 10:00:34;;;;;;;;;12.25;11.75;;;;;29.14;43.76;100786.84;4811937;29;45338;-65
2021/06/16 10:03:13;;;;;;;;;12.00;11.75;;;;;29.17;42.45;100783.78;4828112;29;45525;-66
2021/06/16 10:06:14;;;;;;;;;13.50;10.50;;;;;29.23;42.92;100781.38;4811911;29;45378;-65
2021/06/16 10:08:47;;;;;;;;;10.75;10.75;;;;;29.27;42.50;100783.63;4812122;29;45299;-65
2021/06/16 10:11:19;;;;;;;;;11.50;11.00;;;;;29.22;42.41;100775.03;4828330;29;45505;-66
2021/06/16 10:13:45;;;;;;;;;10.50;10.50;;;;;29.35;41.50;100789.13;4828027;29;46220;-66
2021/06/16 10:16:10;;;;;;;;;11.75;11.00;;;;;29.33;42.27;100791.16;4828181;29;45309;-66
2021/06/16 10:18:43;;;;;;;;;12.75;12.75;;;;;29.34;41.69;100781.03;4826706;29;45390;-65
2021/06/16 10:21:12;;;;;;;;;10.25;9.00;;;;;29.36;41.73;100778.97;4801694;29;45414;-66
2021/06/16 10:23:38;;;;;;;;;9.75;9.75;;;;;29.40;42.06;100780.34;4828011;29;45247;-66
2021/06/16 10:26:24;;;;;;;;;10.75;10.75;;;;;29.48;41.82;100774.00;4828340;29;45217;-65
2021/06/16 10:28:53;;;;;;;;;11.50;11.50;;;;;29.53;41.93;100777.06;4826828;29;45278;-66
2021/06/16 10:31:18;;;;;;;;;9.75;9.75;;;;;29.56;42.18;100782.22;4828384;29;45293;-65
2021/06/16 10:33:44;;;;;;;;;11.25;10.75;;;;;29.64;41.93;100773.97;4810961;29;55255;-66
2021/06/16 10:36:13;;;;;;;;;11.25;11.25;;;;;29.66;41.77;100769.16;4795760;29;57804;-66
2021/06/16 10:38:40;;;;;;;;;12.50;12.50;;;;;29.67;41.71;100770.00;4828164;29;45519;-66
2021/06/16 10:41:06;;;;;;;;;11.25;10.25;;;;;29.70;41.82;100758.66;4828081;29;45323;-65
2021/06/16 10:43:32;;;;;;;;;10.50;10.50;;;;;29.69;40.74;100751.47;4829939;29;46125;-66
2021/06/16 10:46:03;;;;;;;;;11.25;11.00;;;;;29.72;40.42;100754.72;4814546;29;45356;-64
2021/06/16 10:48:50;;;;;;;;;9.75;9.75;;;;;29.72;40.68;100751.97;4831068;29;45323;-66
2021/06/16 10:51:22;;;;;;;;;11.75;10.50;;;;;29.71;40.48;100750.22;4830931;29;45394;-65
2021/06/16 10:54:19;;;;;;;;;12.00;12.00;;;;;29.74;40.91;100751.78;4831109;29;45244;-65
2021/06/16 10:57:04;;;;;;;;;12.75;12.25;;;;;29.73;40.64;100755.56;4830925;29;45247;-66
2021/06/16 10:59:42;;;;;;;;;13.00;13.00;;;;;29.80;40.87;100755.75;4830944;29;45367;-66
2021/06/16 11:02:08;;;;;;;;;13.50;13.50;;;;;29.85;40.70;100745.94;4830905;29;45300;-66
2021/06/16 11:04:33;;;;;;;;;12.50;12.50;;;;;29.88;41.29;100745.59;4830748;29;45405;-66
2021/06/16 11:06:59;;;;;;;;;11.00;10.00;;;;;29.89;41.02;100736.31;4830758;29;45329;-66
2021/06/16 11:09:53;;;;;;;;;9.25;9.25;;;;;29.95;39.84;100742.97;4814406;29;45359;-66